Time;durP1;ratioP1;P1;durP2;ratioP2;P2;SDS_P1;SDS_P2;PMS_P1;PMS_P2;Temp;Humidity;BMP_temperature;BMP_pressure;BME280_temperature;BME280_humidity;BME280_pressure;Samples;Min_cycle;Max_cycle;Signal;HPM_P1;HPM_P2
2021/07/02 00:01:24;;;;;;;7.40;4.97;;;;;;;;;;5011045;28;20439;-70
2021/07/02 00:03:50;;;;;;;7.27;4.87;;;;;;;;;;5011988;28;21167;-70
2021/07/02 00:06:16;;;;;;;6.37;4.63;;;;;;;;;;5032253;28;20431;-68
2021/07/02 00:08:42;;;;;;;5.70;4.83;;;;;;;;;;5021800;28;20445;-70
2021/07/02 00:11:08;;;;;;;6.53;5.23;;;;;;;;;;5012008;28;20830;-69
2021/07/02 00:13:34;;;;;;;6.83;4.80;;;;;;;;;;5011749;28;20515;-69
2021/07/02 00:16:00;;;;;;;5.73;4.70;;;;;;;;;;5013407;28;20571;-71
2021/07/02 00:18:26;;;;;;;5.60;4.30;;;;;;;;;;5031760;28;20404;-70
2021/07/02 00:20:52;;;;;;;6.03;5.17;;;;;;;;;;5030440;28;20826;-71
2021/07/02 00:23:18;;;;;;;6.43;4.80;;;;;;;;;;5031551;28;20438;-70
2021/07/02 00:25:44;;;;;;;7.40;5.97;;;;;;;;;;5022533;28;20443;-70
2021/07/02 00:28:10;;;;;;;6.33;4.73;;;;;;;;;;5026808;28;20424;-69
2021/07/02 00:30:36;;;;;;;5.83;4.80;;;;;;;;;;5011351;28;20787;-70
2021/07/02 00:33:02;;;;;;;5.13;4.57;;;;;;;;;;5011617;28;20424;-70
2021/07/02 00:35:28;;;;;;;7.40;6.13;;;;;;;;;;5010626;28;20488;-69
2021/07/02 00:37:54;;;;;;;6.50;4.90;;;;;;;;;;5011368;28;20788;-70
2021/07/02 00:40:20;;;;;;;6.73;5.03;;;;;;;;;;5011395;28;20424;-70
2021/07/02 00:42:46;;;;;;;6.33;4.90;;;;;;;;;;5011980;28;20490;-70
2021/07/02 00:45:12;;;;;;;5.97;4.73;;;;;;;;;;5011049;28;20904;-72
2021/07/02 00:47:38;;;;;;;7.53;5.17;;;;;;;;;;5011386;28;20420;-69
2021/07/02 00:50:05;;;;;;;6.93;4.83;;;;;;;;;;5025771;28;20791;-70
2021/07/02 00:52:32;;;;;;;6.13;5.27;;;;;;;;;;5029893;28;20474;-69
2021/07/02 00:54:58;;;;;;;7.87;5.13;;;;;;;;;;5029715;28;20424;-71
2021/07/02 00:57:24;;;;;;;4.90;4.23;;;;;;;;;;5028539;28;20773;-70
2021/07/02 00:59:50;;;;;;;5.40;4.80;;;;;;;;;;5020639;28;20498;-70
2021/07/02 01:02:16;;;;;;;5.97;4.93;;;;;;;;;;5026141;28;20520;-70
2021/07/02 01:04:42;;;;;;;6.20;5.23;;;;;;;;;;5010649;28;20855;-70
2021/07/02 01:07:09;;;;;;;6.07;5.47;;;;;;;;;;5038903;28;20475;-70
2021/07/02 01:09:35;;;;;;;7.47;5.63;;;;;;;;;;5030759;28;20486;-70
2021/07/02 01:12:02;;;;;;;6.57;4.70;;;;;;;;;;5031977;28;20766;-72
2021/07/02 01:14:28;;;;;;;7.50;4.83;;;;;;;;;;5033214;28;20423;-70
2021/07/02 01:16:58;;;;;;;6.10;4.90;;;;;;;;;;5029709;28;20475;-71
2021/07/02 01:19:24;;;;;;;7.27;5.27;;;;;;;;;;5034654;28;20469;-71
2021/07/02 01:21:54;;;;;;;5.50;5.00;;;;;;;;;;5034363;28;20432;-70
2021/07/02 01:24:20;;;;;;;6.07;4.93;;;;;;;;;;5031580;28;20437;-70
2021/07/02 01:26:47;;;;;;;6.83;4.70;;;;;;;;;;5015025;28;20911;-70
2021/07/02 01:29:14;;;;;;;9.03;5.03;;;;;;;;;;5013101;28;20499;-70
2021/07/02 01:31:40;;;;;;;7.57;5.10;;;;;;;;;;5026318;28;20474;-72
2021/07/02 01:34:06;;;;;;;6.57;5.00;;;;;;;;;;5022195;28;20928;-72
2021/07/02 01:36:32;;;;;;;5.27;4.33;;;;;;;;;;5014088;28;20565;-71
2021/07/02 01:38:58;;;;;;;7.27;5.20;;;;;;;;;;5029755;28;20429;-70
2021/07/02 01:41:24;;;;;;;8.03;5.50;;;;;;;;;;5045987;28;20455;-71
2021/07/02 01:43:50;;;;;;;5.40;4.90;;;;;;;;;;5014481;28;20575;-70
2021/07/02 01:46:17;;;;;;;7.33;4.93;;;;;;;;;;5032054;28;20516;-70
2021/07/02 01:48:43;;;;;;;7.53;5.03;;;;;;;;;;5034214;28;20411;-69
2021/07/02 01:51:09;;;;;;;5.87;4.83;;;;;;;;;;5031166;28;20931;-70
2021/07/02 01:53:36;;;;;;;4.93;4.43;;;;;;;;;;5032989;28;20431;-70
2021/07/02 01:56:02;;;;;;;4.60;3.90;;;;;;;;;;5033805;28;20533;-71
2021/07/02 01:58:28;;;;;;;7.23;4.40;;;;;;;;;;5034152;28;20474;-70
2021/07/02 02:00:54;;;;;;;6.73;4.50;;;;;;;;;;5033967;28;20419;-71
2021/07/02 02:03:20;;;;;;;7.40;5.30;;;;;;;;;;5034094;28;20809;-70
2021/07/02 02:05:47;;;;;;;4.80;4.20;;;;;;;;;;5031932;28;20502;-70
2021/07/02 02:08:13;;;;;;;7.73;5.67;;;;;;;;;;5020846;28;20838;-70
2021/07/02 02:10:39;;;;;;;4.90;4.10;;;;;;;;;;5013892;28;20425;-71
2021/07/02 02:13:05;;;;;;;5.87;5.30;;;;;;;;;;5021676;28;20481;-70
2021/07/02 02:15:32;;;;;;;5.57;4.70;;;;;;;;;;5028416;28;20543;-71
2021/07/02 02:17:58;;;;;;;6.33;4.83;;;;;;;;;;5014153;28;20428;-72
2021/07/02 02:20:24;;;;;;;6.70;5.83;;;;;;;;;;5013194;28;20471;-70
2021/07/02 02:22:50;;;;;;;5.37;4.80;;;;;;;;;;5013923;28;20428;-70
2021/07/02 02:25:16;;;;;;;7.50;5.43;;;;;;;;;;5013557;28;20444;-71
2021/07/02 02:27:42;;;;;;;7.23;4.80;;;;;;;;;;5013653;28;20918;-71
2021/07/02 02:30:08;;;;;;;5.60;5.00;;;;;;;;;;5013282;28;20428;-70
2021/07/02 02:32:35;;;;;;;6.57;5.30;;;;;;;;;;5024328;28;20435;-71
2021/07/02 02:35:01;;;;;;;5.23;4.70;;;;;;;;;;5032559;28;20829;-70
2021/07/02 02:37:27;;;;;;;6.30;5.40;;;;;;;;;;5031806;28;20451;-70
2021/07/02 02:39:53;;;;;;;4.67;4.10;;;;;;;;;;5013337;28;20479;-71
2021/07/02 02:42:19;;;;;;;7.07;5.00;;;;;;;;;;5061166;28;20953;-70
2021/07/02 02:44:45;;;;;;;6.20;4.67;;;;;;;;;;5032967;28;20427;-71
2021/07/02 02:47:11;;;;;;;6.70;4.93;;;;;;;;;;5033305;28;20420;-69
2021/07/02 02:49:37;;;;;;;5.83;4.93;;;;;;;;;;5032661;28;20416;-71
2021/07/02 02:52:04;;;;;;;6.50;5.90;;;;;;;;;;5033054;28;20482;-71
2021/07/02 02:54:30;;;;;;;6.03;5.13;;;;;;;;;;5032909;28;20456;-71
2021/07/02 02:57:06;;;;;;;7.40;5.20;;;;;;;;;;5032805;28;20878;-70
2021/07/02 02:59:35;;;;;;;6.13;5.23;;;;;;;;;;5017211;28;20444;-70
2021/07/02 03:02:01;;;;;;;5.73;4.03;;;;;;;;;;5028388;28;20513;-70
2021/07/02 03:04:27;;;;;;;6.00;4.60;;;;;;;;;;5012806;28;20830;-70
2021/07/02 03:06:53;;;;;;;5.70;4.60;;;;;;;;;;5022789;28;20527;-70
2021/07/02 03:09:19;;;;;;;6.87;4.80;;;;;;;;;;5033008;28;20511;-71
2021/07/02 03:11:45;;;;;;;7.53;5.67;;;;;;;;;;5031314;28;20440;-71
2021/07/02 03:14:11;;;;;;;5.97;5.37;;;;;;;;;;5032296;28;20422;-70
2021/07/02 03:16:38;;;;;;;5.17;4.50;;;;;;;;;;5016386;28;20522;-69
2021/07/02 03:19:04;;;;;;;4.83;4.03;;;;;;;;;;5028108;28;21043;-69
2021/07/02 03:21:30;;;;;;;8.10;5.10;;;;;;;;;;5027728;28;20483;-69
2021/07/02 03:23:56;;;;;;;6.53;4.70;;;;;;;;;;5012652;28;20429;-71
2021/07/02 03:26:22;;;;;;;5.80;4.90;;;;;;;;;;5024017;28;20475;-71
2021/07/02 03:28:48;;;;;;;6.67;5.10;;;;;;;;;;5032368;28;20423;-69
2021/07/02 03:31:14;;;;;;;11.13;5.20;;;;;;;;;;5032215;28;20421;-70
2021/07/02 03:33:40;;;;;;;6.07;4.63;;;;;;;;;;5029755;28;20466;-70
2021/07/02 03:36:06;;;;;;;6.50;5.20;;;;;;;;;;5018320;28;20492;-70
2021/07/02 03:38:32;;;;;;;8.03;4.73;;;;;;;;;;5020819;28;20866;-71
2021/07/02 03:40:58;;;;;;;9.00;5.27;;;;;;;;;;5043829;28;20436;-70
2021/07/02 03:43:24;;;;;;;7.73;5.20;;;;;;;;;;5012445;28;20431;-70
2021/07/02 03:45:50;;;;;;;6.97;5.67;;;;;;;;;;5011863;28;20425;-71
2021/07/02 03:48:16;;;;;;;6.77;4.50;;;;;;;;;;5043798;28;20966;-71
2021/07/02 03:50:42;;;;;;;8.60;5.70;;;;;;;;;;5012146;28;20448;-70
2021/07/02 03:53:08;;;;;;;5.93;5.23;;;;;;;;;;5012310;28;20448;-71
2021/07/02 03:55:34;;;;;;;6.80;5.10;;;;;;;;;;5012150;28;20541;-71
2021/07/02 03:58:00;;;;;;;7.00;5.07;;;;;;;;;;5027451;28;20443;-69
2021/07/02 04:00:26;;;;;;;7.17;5.60;;;;;;;;;;5011852;28;20421;-71
2021/07/02 04:02:52;;;;;;;6.93;5.40;;;;;;;;;;5012048;28;20424;-70
2021/07/02 04:05:18;;;;;;;7.93;5.97;;;;;;;;;;5011441;28;20428;-70
2021/07/02 04:07:44;;;;;;;6.20;4.80;;;;;;;;;;5012280;28;20582;-71
2021/07/02 04:10:10;;;;;;;7.90;5.40;;;;;;;;;;5011811;28;20451;-70
2021/07/02 04:12:36;;;;;;;7.83;5.10;;;;;;;;;;5011692;28;20421;-70
2021/07/02 04:15:03;;;;;;;7.00;5.77;;;;;;;;;;5025057;28;20442;-70
2021/07/02 04:17:29;;;;;;;6.00;5.40;;;;;;;;;;5030034;28;20452;-70
2021/07/02 04:19:55;;;;;;;6.57;5.80;;;;;;;;;;5029682;28;20440;-70
2021/07/02 04:22:21;;;;;;;5.47;4.70;;;;;;;;;;5031407;28;20963;-70
2021/07/02 04:24:47;;;;;;;6.87;5.30;;;;;;;;;;5012521;28;20470;-71
2021/07/02 04:27:14;;;;;;;7.23;6.40;;;;;;;;;;5011688;28;20427;-71
2021/07/02 04:29:40;;;;;;;6.13;5.20;;;;;;;;;;5011017;28;20421;-70
2021/07/02 04:32:06;;;;;;;8.50;5.60;;;;;;;;;;5016164;28;21138;-70
2021/07/02 04:34:32;;;;;;;5.97;5.40;;;;;;;;;;5030796;28;20478;-71
2021/07/02 04:36:58;;;;;;;5.67;4.53;;;;;;;;;;5030875;28;20475;-70
2021/07/02 04:39:24;;;;;;;6.70;5.20;;;;;;;;;;5013550;28;20780;-70
2021/07/02 04:41:51;;;;;;;6.00;5.40;;;;;;;;;;5011841;28;20503;-71
2021/07/02 04:44:17;;;;;;;6.60;5.40;;;;;;;;;;5026460;28;20436;-71
2021/07/02 04:46:43;;;;;;;7.80;6.33;;;;;;;;;;5011224;28;20758;-71
2021/07/02 04:49:09;;;;;;;6.50;4.80;;;;;;;;;;5011649;28;20420;-71
2021/07/02 04:51:35;;;;;;;7.20;6.30;;;;;;;;;;5010737;28;20436;-71
2021/07/02 04:54:01;;;;;;;6.50;5.70;;;;;;;;;;5011354;28;20433;-70
2021/07/02 04:56:27;;;;;;;7.90;5.70;;;;;;;;;;5011045;28;20511;-70
2021/07/02 04:58:57;;;;;;;5.37;4.73;;;;;;;;;;5016105;28;20436;-72
2021/07/02 05:01:25;;;;;;;8.60;5.67;;;;;;;;;;5028478;28;20523;-71
2021/07/02 05:03:51;;;;;;;6.27;5.30;;;;;;;;;;5027041;28;20449;-69
2021/07/02 05:06:17;;;;;;;5.83;5.03;;;;;;;;;;5030420;28;20922;-71
2021/07/02 05:08:44;;;;;;;7.47;5.43;;;;;;;;;;5029612;28;20902;-71
2021/07/02 05:11:10;;;;;;;8.07;5.90;;;;;;;;;;5029399;28;20428;-70
2021/07/02 05:13:40;;;;;;;6.10;5.50;;;;;;;;;;5029215;28;20862;-69
2021/07/02 05:16:06;;;;;;;6.73;5.63;;;;;;;;;;5030149;28;20479;-71
2021/07/02 05:18:32;;;;;;;5.70;4.63;;;;;;;;;;5029498;28;20434;-70
2021/07/02 05:21:00;;;;;;;6.30;4.80;;;;;;;;;;5030436;28;20843;-69
2021/07/02 05:23:26;;;;;;;6.20;4.53;;;;;;;;;;5028601;28;21190;-70
2021/07/02 05:25:52;;;;;;;5.67;4.77;;;;;;;;;;5027989;28;20432;-71
2021/07/02 05:28:18;;;;;;;4.97;4.53;;;;;;;;;;5028558;28;20918;-70
2021/07/02 05:30:44;;;;;;;5.73;5.13;;;;;;;;;;5028254;28;20938;-70
2021/07/02 05:33:10;;;;;;;5.57;5.07;;;;;;;;;;5011043;28;20427;-71
2021/07/02 05:35:36;;;;;;;5.30;4.80;;;;;;;;;;5009823;28;20484;-70
2021/07/02 05:38:02;;;;;;;5.67;5.07;;;;;;;;;;5009459;28;20943;-71
2021/07/02 05:40:28;;;;;;;6.40;4.60;;;;;;;;;;5010885;28;20491;-71
2021/07/02 05:42:54;;;;;;;5.50;4.53;;;;;;;;;;5061941;28;21049;-70
2021/07/02 05:45:20;;;;;;;4.03;3.70;;;;;;;;;;5029251;28;20527;-71
2021/07/02 05:47:48;;;;;;;6.00;5.10;;;;;;;;;;5028368;28;20530;-71
2021/07/02 05:50:15;;;;;;;4.03;3.63;;;;;;;;;;5027588;28;20459;-71
2021/07/02 05:52:41;;;;;;;6.10;5.10;;;;;;;;;;5028258;28;20428;-69
2021/07/02 05:55:07;;;;;;;5.50;3.90;;;;;;;;;;5029914;28;20858;-70
2021/07/02 05:57:34;;;;;;;5.20;4.70;;;;;;;;;;5030437;28;20953;-70
2021/07/02 06:00:00;;;;;;;4.00;3.70;;;;;;;;;;5030574;28;20435;-70
2021/07/02 06:02:25;;;;;;;5.20;4.70;;;;;;;;;;5033773;28;20420;-74
2021/07/02 06:04:51;;;;;;;4.47;4.07;;;;;;;;;;5031562;28;20431;-71
2021/07/02 06:07:17;;;;;;;5.30;4.37;;;;;;;;;;5027789;28;20439;-71
2021/07/02 06:09:44;;;;;;;5.23;4.63;;;;;;;;;;5033367;28;20919;-71
2021/07/02 06:12:10;;;;;;;4.50;4.03;;;;;;;;;;5032800;28;20948;-70
2021/07/02 06:14:36;;;;;;;5.20;4.70;;;;;;;;;;5033223;28;20422;-71
2021/07/02 06:17:02;;;;;;;4.90;4.50;;;;;;;;;;5032862;28;20563;-72
2021/07/02 06:19:28;;;;;;;5.03;4.60;;;;;;;;;;5033620;28;20420;-71
2021/07/02 06:21:54;;;;;;;5.20;4.70;;;;;;;;;;5030476;28;20531;-70
2021/07/02 06:24:20;;;;;;;6.67;5.43;;;;;;;;;;5013468;28;20754;-71
2021/07/02 06:26:46;;;;;;;5.53;5.03;;;;;;;;;;5013772;28;20542;-72
2021/07/02 06:29:12;;;;;;;7.23;4.97;;;;;;;;;;5013432;28;20892;-71
2021/07/02 06:31:38;;;;;;;5.30;4.50;;;;;;;;;;5013579;28;20428;-71
2021/07/02 06:34:04;;;;;;;5.70;4.47;;;;;;;;;;5013466;28;20425;-70
2021/07/02 06:36:30;;;;;;;5.50;4.73;;;;;;;;;;5013199;28;20484;-73
2021/07/02 06:38:56;;;;;;;5.30;4.80;;;;;;;;;;5015670;28;20451;-72
2021/07/02 06:41:22;;;;;;;4.83;4.40;;;;;;;;;;5032889;28;20447;-70
2021/07/02 06:43:48;;;;;;;6.00;4.77;;;;;;;;;;5032489;28;20455;-69
2021/07/02 06:46:14;;;;;;;5.20;4.60;;;;;;;;;;5030783;28;20787;-71
2021/07/02 06:48:40;;;;;;;5.67;5.07;;;;;;;;;;5026673;28;20418;-73
2021/07/02 06:51:06;;;;;;;5.03;4.60;;;;;;;;;;5032731;28;20431;-71
2021/07/02 06:53:32;;;;;;;5.40;4.90;;;;;;;;;;5033300;28;20444;-70
2021/07/02 06:55:58;;;;;;;6.53;5.23;;;;;;;;;;5030050;28;20562;-70
2021/07/02 06:58:24;;;;;;;6.37;5.27;;;;;;;;;;5028601;28;21043;-71
2021/07/02 07:00:50;;;;;;;6.00;5.40;;;;;;;;;;5025691;28;20482;-72
2021/07/02 07:03:16;;;;;;;6.90;5.47;;;;;;;;;;5026382;28;20827;-70
2021/07/02 07:05:43;;;;;;;5.70;4.70;;;;;;;;;;5013033;28;20425;-69
2021/07/02 07:08:09;;;;;;;5.77;4.90;;;;;;;;;;5029733;28;20451;-69
2021/07/02 07:10:36;;;;;;;5.40;4.33;;;;;;;;;;5011637;28;20471;-70
2021/07/02 07:13:05;;;;;;;6.20;5.13;;;;;;;;;;5020296;28;20464;-70
2021/07/02 07:15:31;;;;;;;6.50;5.80;;;;;;;;;;5032421;28;20487;-72
2021/07/02 07:17:58;;;;;;;5.93;4.97;;;;;;;;;;5044513;28;20467;-71
2021/07/02 07:20:24;;;;;;;6.73;5.60;;;;;;;;;;5012583;28;20463;-70
2021/07/02 07:22:50;;;;;;;6.10;5.20;;;;;;;;;;5013113;28;20452;-70
2021/07/02 07:25:16;;;;;;;7.00;4.60;;;;;;;;;;5012968;28;20555;-69
2021/07/02 07:27:44;;;;;;;5.47;4.97;;;;;;;;;;5012951;28;20409;-70
2021/07/02 07:30:10;;;;;;;6.90;5.50;;;;;;;;;;5048608;28;20455;-71
2021/07/02 07:32:37;;;;;;;6.03;4.97;;;;;;;;;;5032528;28;20446;-71
2021/07/02 07:35:15;;;;;;;5.00;4.50;;;;;;;;;;5027249;28;20484;-71
2021/07/02 07:37:41;;;;;;;6.20;4.73;;;;;;;;;;5028804;28;20517;-71
2021/07/02 07:40:08;;;;;;;5.20;4.70;;;;;;;;;;5031209;28;20434;-70
2021/07/02 07:42:34;;;;;;;6.13;5.40;;;;;;;;;;5033313;28;20511;-70
2021/07/02 07:45:00;;;;;;;6.50;5.10;;;;;;;;;;5032660;28;20508;-69
2021/07/02 07:47:26;;;;;;;6.20;4.43;;;;;;;;;;5032115;28;20424;-70
2021/07/02 07:49:52;;;;;;;4.57;4.17;;;;;;;;;;5032400;28;20422;-70
2021/07/02 07:52:25;;;;;;;4.73;4.33;;;;;;;;;;5033120;28;20435;-70
2021/07/02 07:54:51;;;;;;;4.23;3.83;;;;;;;;;;5021338;28;20783;-70
2021/07/02 07:57:17;;;;;;;4.63;4.13;;;;;;;;;;5031412;28;20562;-71
2021/07/02 07:59:43;;;;;;;5.33;4.70;;;;;;;;;;5032287;28;20427;-69
2021/07/02 08:02:09;;;;;;;4.97;4.47;;;;;;;;;;5032537;28;20427;-71
2021/07/02 08:04:35;;;;;;;4.50;4.10;;;;;;;;;;5032327;28;20778;-71
2021/07/02 08:07:01;;;;;;;4.43;4.03;;;;;;;;;;5032370;28;20430;-71
2021/07/02 08:09:29;;;;;;;5.73;3.77;;;;;;;;;;5032934;28;20412;-71
2021/07/02 08:11:55;;;;;;;5.50;5.00;;;;;;;;;;5032341;28;20435;-70
2021/07/02 08:14:21;;;;;;;7.07;5.17;;;;;;;;;;5032456;28;20416;-71
2021/07/02 08:16:47;;;;;;;4.90;4.50;;;;;;;;;;5032683;28;20478;-71
2021/07/02 08:19:13;;;;;;;5.13;4.60;;;;;;;;;;5031284;28;20435;-70
2021/07/02 08:21:39;;;;;;;5.60;4.20;;;;;;;;;;5031904;28;20438;-71
2021/07/02 08:24:05;;;;;;;4.53;4.13;;;;;;;;;;5030819;28;20420;-70
2021/07/02 08:26:31;;;;;;;4.53;4.10;;;;;;;;;;5012828;28;20428;-70
2021/07/02 08:31:42;;;;;;;4.37;3.97;;;;;;;;;;5012965;28;20440;-71
2021/07/02 08:34:11;;;;;;;6.30;4.30;;;;;;;;;;5012651;28;20432;-71
2021/07/02 08:36:37;;;;;;;6.27;5.10;;;;;;;;;;5018988;28;20479;-71
2021/07/02 08:39:03;;;;;;;5.40;4.87;;;;;;;;;;5029018;28;20435;-71
2021/07/02 08:41:29;;;;;;;4.70;4.30;;;;;;;;;;5031175;28;20447;-71
2021/07/02 08:43:56;;;;;;;4.50;4.07;;;;;;;;;;5032432;28;20454;-72
2021/07/02 08:46:22;;;;;;;6.23;4.10;;;;;;;;;;5032092;28;20420;-71
2021/07/02 08:48:49;;;;;;;4.70;4.30;;;;;;;;;;5032427;28;20518;-71
2021/07/02 08:51:20;;;;;;;4.10;3.70;;;;;;;;;;5031924;28;20427;-70
2021/07/02 08:53:46;;;;;;;8.83;3.80;;;;;;;;;;5032542;28;20412;-71
2021/07/02 08:56:12;;;;;;;3.90;3.60;;;;;;;;;;5032355;28;20475;-70
2021/07/02 08:58:38;;;;;;;3.90;3.60;;;;;;;;;;5031020;28;20431;-70
2021/07/02 09:01:08;;;;;;;4.97;3.80;;;;;;;;;;5030819;28;20479;-71
2021/07/02 09:03:38;;;;;;;4.43;3.63;;;;;;;;;;5027986;28;20444;-72
2021/07/02 09:06:19;;;;;;;4.30;3.80;;;;;;;;;;5027652;28;20465;-71
2021/07/02 09:08:57;;;;;;;3.90;3.60;;;;;;;;;;5032350;28;20493;-72
2021/07/02 09:11:25;;;;;;;6.43;3.90;;;;;;;;;;5026613;28;21009;-70
2021/07/02 09:13:51;;;;;;;4.43;3.60;;;;;;;;;;5031985;28;20913;-69
2021/07/02 09:16:21;;;;;;;4.13;3.73;;;;;;;;;;5031673;28;20472;-69
2021/07/02 09:18:47;;;;;;;5.00;3.67;;;;;;;;;;5030765;28;21047;-72
2021/07/02 09:21:29;;;;;;;3.93;3.40;;;;;;;;;;5031194;28;20466;-71
2021/07/02 09:23:59;;;;;;;3.53;3.23;;;;;;;;;;5032044;28;20408;-70
2021/07/02 09:26:43;;;;;;;4.20;3.80;;;;;;;;;;5031778;28;20841;-70
2021/07/02 09:29:22;;;;;;;4.00;3.60;;;;;;;;;;5031784;28;20439;-71
2021/07/02 09:31:58;;;;;;;4.73;4.33;;;;;;;;;;5031186;28;20523;-71
2021/07/02 09:34:44;;;;;;;3.53;3.23;;;;;;;;;;5029438;28;20474;-70
2021/07/02 09:37:25;;;;;;;4.50;4.10;;;;;;;;;;5023702;28;20482;-70
2021/07/02 09:39:51;;;;;;;5.03;4.10;;;;;;;;;;5029596;28;20427;-69
2021/07/02 09:42:24;;;;;;;3.60;3.30;;;;;;;;;;5030664;28;20439;-71
2021/07/02 09:45:09;;;;;;;3.60;3.30;;;;;;;;;;5032233;28;20442;-70
2021/07/02 09:47:35;;;;;;;5.13;3.80;;;;;;;;;;5032070;28;20789;-72
2021/07/02 09:50:15;;;;;;;4.43;3.87;;;;;;;;;;5032059;28;20435;-71
2021/07/02 09:52:42;;;;;;;4.30;3.63;;;;;;;;;;5031608;28;20510;-72
2021/07/02 09:55:08;;;;;;;4.00;3.60;;;;;;;;;;5024459;28;20427;-72
2021/07/02 09:57:34;;;;;;;3.70;3.13;;;;;;;;;;5030771;28;20443;-71
2021/07/02 10:00:04;;;;;;;4.07;3.70;;;;;;;;;;5032287;28;20427;-72
2021/07/02 10:02:31;;;;;;;4.40;3.93;;;;;;;;;;5032031;28;20438;-72
2021/07/02 10:05:00;;;;;;;9.13;3.70;;;;;;;;;;5031562;28;20423;-72
2021/07/02 10:07:27;;;;;;;4.20;3.80;;;;;;;;;;5028102;28;20836;-70
2021/07/02 10:09:53;;;;;;;4.53;4.00;;;;;;;;;;5030600;28;20443;-72
2021/07/02 10:12:23;;;;;;;4.93;4.20;;;;;;;;;;5031932;28;20434;-71
2021/07/02 10:14:49;;;;;;;4.93;3.87;;;;;;;;;;5032093;28;20438;-73
2021/07/02 10:17:19;;;;;;;4.07;3.67;;;;;;;;;;5030705;28;20474;-71
2021/07/02 10:19:46;;;;;;;4.00;3.60;;;;;;;;;;5031727;28;20416;-71
2021/07/02 10:22:14;;;;;;;3.43;3.13;;;;;;;;;;5030877;28;20435;-71
2021/07/02 10:24:40;;;;;;;4.20;3.60;;;;;;;;;;5030809;28;20443;-71
2021/07/02 10:27:08;;;;;;;4.27;3.37;;;;;;;;;;5031000;28;20522;-72
2021/07/02 10:29:34;;;;;;;4.00;3.60;;;;;;;;;;5028313;28;20860;-72
2021/07/02 10:32:00;;;;;;;4.07;3.67;;;;;;;;;;5027146;28;20585;-72
2021/07/02 10:34:26;;;;;;;3.50;3.20;;;;;;;;;;5030533;28;20942;-72
2021/07/02 10:36:53;;;;;;;4.03;3.63;;;;;;;;;;5028150;28;20566;-72
2021/07/02 10:39:32;;;;;;;3.93;3.63;;;;;;;;;;5031208;28;20509;-73
2021/07/02 10:42:08;;;;;;;3.53;3.23;;;;;;;;;;5030421;28;20510;-73
2021/07/02 10:44:34;;;;;;;5.50;3.80;;;;;;;;;;5030766;28;20497;-73
2021/07/02 10:47:04;;;;;;;4.20;3.80;;;;;;;;;;5029788;28;20527;-73
2021/07/02 10:49:37;;;;;;;4.20;3.80;;;;;;;;;;5030885;28;20451;-71
2021/07/02 10:52:22;;;;;;;4.90;4.00;;;;;;;;;;5015653;28;20454;-72
2021/07/02 10:54:48;;;;;;;3.93;3.63;;;;;;;;;;5016131;28;20950;-72
2021/07/02 10:57:17;;;;;;;3.77;3.40;;;;;;;;;;5018349;28;20549;-72
2021/07/02 10:59:44;;;;;;;3.27;3.03;;;;;;;;;;5019026;28;20763;-71
2021/07/02 11:02:13;;;;;;;3.70;3.30;;;;;;;;;;5019865;28;20451;-71
2021/07/02 11:04:41;;;;;;;2.97;2.77;;;;;;;;;;5018988;28;20893;-72
2021/07/02 11:07:13;;;;;;;3.13;2.93;;;;;;;;;;5009529;28;20440;-71
2021/07/02 11:09:42;;;;;;;4.00;3.60;;;;;;;;;;5009421;28;20543;-72
2021/07/02 11:12:09;;;;;;;3.83;3.20;;;;;;;;;;5018080;28;20555;-72
2021/07/02 11:17:25;;;;;;;3.77;3.43;;;;;;;;;;5022590;28;20570;-72
2021/07/02 11:20:07;;;;;;;4.80;3.90;;;;;;;;;;5055198;28;20562;-72
2021/07/02 11:22:40;;;;;;;4.20;3.80;;;;;;;;;;5021312;28;20428;-71
2021/07/02 11:25:32;;;;;;;4.23;3.13;;;;;;;;;;5022325;28;20527;-71
2021/07/02 11:28:01;;;;;;;3.83;3.43;;;;;;;;;;5052025;28;20441;-72
2021/07/02 11:30:35;;;;;;;6.07;4.60;;;;;;;;;;5019689;28;20428;-72
2021/07/02 11:33:01;;;;;;;4.20;3.80;;;;;;;;;;5020176;28;20557;-71
2021/07/02 11:35:28;;;;;;;4.03;3.63;;;;;;;;;;5018398;28;20488;-70
2021/07/02 11:38:01;;;;;;;4.73;3.80;;;;;;;;;;5022592;28;20810;-72
2021/07/02 11:40:31;;;;;;;4.10;3.70;;;;;;;;;;5056004;28;20946;-71
2021/07/02 11:42:58;;;;;;;4.27;3.70;;;;;;;;;;5028101;28;21033;-80
2021/07/02 11:45:37;;;;;;;3.93;3.43;;;;;;;;;;5025981;28;20499;-72
2021/07/02 11:48:04;;;;;;;4.23;3.90;;;;;;;;;;5028875;28;20747;-71
2021/07/02 11:50:59;;;;;;;5.13;4.13;;;;;;;;;;5026742;28;20431;-71
2021/07/02 11:53:32;;;;;;;4.13;3.60;;;;;;;;;;5019886;28;20455;-73
2021/07/02 11:56:02;;;;;;;6.70;3.90;;;;;;;;;;5027094;28;20463;-72
2021/07/02 11:58:31;;;;;;;4.37;3.97;;;;;;;;;;5025027;28;20443;-78
2021/07/02 12:01:02;;;;;;;4.83;4.40;;;;;;;;;;5020420;28;20417;-78
2021/07/02 12:03:29;;;;;;;4.10;3.80;;;;;;;;;;5020852;28;20920;-78
2021/07/02 12:05:56;;;;;;;5.00;3.40;;;;;;;;;;5018995;28;20424;-80
2021/07/02 12:08:23;;;;;;;4.10;3.80;;;;;;;;;;5052457;28;20440;-80
2021/07/02 12:10:56;;;;;;;3.77;3.47;;;;;;;;;;5021676;28;20428;-80
2021/07/02 12:13:25;;;;;;;4.67;4.27;;;;;;;;;;5036088;28;20425;-81
2021/07/02 12:16:05;;;;;;;4.80;4.40;;;;;;;;;;5023082;28;21051;-79
2021/07/02 12:18:31;;;;;;;6.40;4.27;;;;;;;;;;5022564;28;20564;-81
2021/07/02 12:21:05;;;;;;;6.27;3.97;;;;;;;;;;5021474;28;20420;-79
2021/07/02 12:23:35;;;;;;;4.73;4.30;;;;;;;;;;5017422;28;20428;-80
2021/07/02 12:26:12;;;;;;;4.37;3.83;;;;;;;;;;5021608;28;20934;-75
2021/07/02 12:29:00;;;;;;;6.47;4.53;;;;;;;;;;5018617;28;20428;-80
2021/07/02 12:31:27;;;;;;;5.03;4.60;;;;;;;;;;5051302;28;20490;-80
2021/07/02 12:33:55;;;;;;;3.93;3.50;;;;;;;;;;5040875;28;20431;-80
2021/07/02 12:36:21;;;;;;;6.17;3.97;;;;;;;;;;5021343;28;20499;-79
2021/07/02 12:39:02;;;;;;;4.93;4.43;;;;;;;;;;5024105;28;20460;-79
2021/07/02 12:41:42;;;;;;;5.03;4.57;;;;;;;;;;5023272;28;20938;-78
2021/07/02 12:44:09;;;;;;;4.30;3.90;;;;;;;;;;5023177;28;20518;-81
2021/07/02 12:46:35;;;;;;;5.67;4.20;;;;;;;;;;5022139;28;20436;-79
2021/07/02 12:49:21;;;;;;;8.63;4.70;;;;;;;;;;5022863;28;20955;-82
2021/07/02 12:54:54;;;;;;;5.03;4.50;;;;;;;;;;5018465;28;20437;-79
2021/07/02 12:57:23;;;;;;;4.43;4.03;;;;;;;;;;5023462;28;20540;-79
2021/07/02 12:59:58;;;;;;;5.53;4.13;;;;;;;;;;5022490;28;20443;-79
2021/07/02 13:02:29;;;;;;;5.83;4.23;;;;;;;;;;5024527;28;20454;-81
2021/07/02 13:04:56;;;;;;;4.80;4.40;;;;;;;;;;5022815;28;20498;-79
2021/07/02 13:07:22;;;;;;;4.50;4.00;;;;;;;;;;5020709;28;20463;-80
2021/07/02 13:10:04;;;;;;;4.37;3.97;;;;;;;;;;5018931;28;20428;-75
2021/07/02 13:12:30;;;;;;;7.23;4.17;;;;;;;;;;5025220;28;20483;-79
2021/07/02 13:15:08;;;;;;;3.93;3.63;;;;;;;;;;5024676;28;20443;-79
2021/07/02 13:17:45;;;;;;;4.60;4.10;;;;;;;;;;5042759;28;20898;-77
2021/07/02 13:20:12;;;;;;;5.20;4.70;;;;;;;;;;5028491;28;20507;-81
2021/07/02 13:22:39;;;;;;;4.40;4.00;;;;;;;;;;5021003;28;20420;-80
2021/07/02 13:25:06;;;;;;;4.47;3.93;;;;;;;;;;5024501;28;20435;-79
2021/07/02 13:27:32;;;;;;;5.13;4.30;;;;;;;;;;5024547;28;20451;-80
2021/07/02 13:30:03;;;;;;;4.70;3.93;;;;;;;;;;5035040;28;20538;-82
2021/07/02 13:32:29;;;;;;;4.40;4.00;;;;;;;;;;5024633;28;20890;-80
2021/07/02 13:34:55;;;;;;;4.17;3.87;;;;;;;;;;5037438;28;20562;-79
2021/07/02 13:37:28;;;;;;;5.40;4.10;;;;;;;;;;5024882;28;20472;-80
2021/07/02 13:39:54;;;;;;;4.83;4.43;;;;;;;;;;5057541;28;20431;-77
2021/07/02 13:42:25;;;;;;;4.43;4.03;;;;;;;;;;5022021;28;20435;-80
2021/07/02 13:45:05;;;;;;;3.87;3.57;;;;;;;;;;5023322;28;20816;-78
2021/07/02 13:47:32;;;;;;;4.10;3.73;;;;;;;;;;5023027;28;20432;-77
2021/07/02 13:49:58;;;;;;;5.07;4.67;;;;;;;;;;5017711;28;20447;-74
2021/07/02 13:52:28;;;;;;;4.37;4.00;;;;;;;;;;5020516;28;20893;-79
2021/07/02 13:54:55;;;;;;;4.37;3.97;;;;;;;;;;5021851;28;20497;-76
2021/07/02 13:57:21;;;;;;;5.40;4.70;;;;;;;;;;5035456;28;20507;-78
2021/07/02 13:59:47;;;;;;;3.97;3.60;;;;;;;;;;5038796;28;20420;-76
2021/07/02 14:02:13;;;;;;;5.60;5.10;;;;;;;;;;5021743;28;20460;-78
2021/07/02 14:04:39;;;;;;;5.73;4.60;;;;;;;;;;5025556;28;20446;-76
2021/07/02 14:07:07;;;;;;;3.97;3.57;;;;;;;;;;5035132;28;20493;-78
2021/07/02 14:09:33;;;;;;;4.40;4.10;;;;;;;;;;5016868;28;20475;-80
2021/07/02 14:11:59;;;;;;;4.17;3.87;;;;;;;;;;5016227;28;20869;-80
2021/07/02 14:14:25;;;;;;;4.83;4.30;;;;;;;;;;5015244;28;20960;-77
2021/07/02 14:16:51;;;;;;;5.03;4.03;;;;;;;;;;5033267;28;20483;-80
2021/07/02 14:19:17;;;;;;;5.27;4.27;;;;;;;;;;5047203;28;20435;-78
2021/07/02 14:21:43;;;;;;;5.53;5.03;;;;;;;;;;5015843;28;20436;-83
2021/07/02 14:24:10;;;;;;;4.60;4.20;;;;;;;;;;5010527;28;20531;-80
2021/07/02 14:26:37;;;;;;;4.90;4.40;;;;;;;;;;5025892;28;20429;-80
2021/07/02 14:29:04;;;;;;;4.47;4.07;;;;;;;;;;5014535;28;20528;-82
2021/07/02 14:31:30;;;;;;;14.40;4.70;;;;;;;;;;5008467;28;20443;-80
2021/07/02 14:33:56;;;;;;;4.60;4.20;;;;;;;;;;5010887;28;20428;-80
2021/07/02 14:36:22;;;;;;;4.93;4.40;;;;;;;;;;5015270;28;20483;-78
2021/07/02 14:38:48;;;;;;;4.63;4.23;;;;;;;;;;5015746;28;20428;-79
2021/07/02 14:41:14;;;;;;;4.90;4.50;;;;;;;;;;5011062;28;20443;-77
2021/07/02 14:43:40;;;;;;;4.73;4.43;;;;;;;;;;5018120;28;20791;-77
2021/07/02 14:46:06;;;;;;;4.90;4.40;;;;;;;;;;5015102;28;20462;-79
2021/07/02 14:48:32;;;;;;;5.13;4.70;;;;;;;;;;5027705;28;20762;-77
2021/07/02 14:50:58;;;;;;;4.80;4.40;;;;;;;;;;5013745;28;20447;-79
2021/07/02 14:53:25;;;;;;;6.20;4.97;;;;;;;;;;5011704;28;20424;-75
2021/07/02 14:55:51;;;;;;;4.77;4.37;;;;;;;;;;5018447;28;20471;-79